createdAt,value
2023-04-30T00:00:39.436Z,18.80
2023-04-30T00:04:13.040Z,16.40
2023-04-30T00:07:44.650Z,15.80
2023-04-30T00:11:11.659Z,17.50
2023-04-30T00:14:40.245Z,19.50
2023-04-30T00:18:07.948Z,19.20
2023-04-30T00:21:36.600Z,21.20
2023-04-30T00:25:03.971Z,18.80
2023-04-30T00:28:31.078Z,18.50
2023-04-30T00:31:58.376Z,15.90
2023-04-30T00:35:25.391Z,19.20
2023-04-30T00:38:52.019Z,19.90
2023-04-30T00:42:19.981Z,17.90
2023-04-30T00:45:47.504Z,17.70
2023-04-30T00:49:14.422Z,17.50
2023-04-30T00:52:41.632Z,17.60
2023-04-30T00:56:10.836Z,17.30
2023-04-30T00:59:38.272Z,17.50
2023-04-30T01:03:07.807Z,18.00
2023-04-30T01:06:35.425Z,14.90
2023-04-30T01:10:03.508Z,12.20
2023-04-30T01:13:36.503Z,13.20
2023-04-30T01:17:12.192Z,13.70
2023-04-30T01:20:45.770Z,15.00
2023-04-30T01:24:36.438Z,16.80
2023-04-30T01:28:09.994Z,15.90
2023-04-30T01:31:37.850Z,17.30
2023-04-30T01:35:04.334Z,12.20
2023-04-30T01:38:44.378Z,12.40
2023-04-30T01:42:22.023Z,14.80
2023-04-30T01:46:01.720Z,12.70
2023-04-30T01:49:39.185Z,14.30
2023-04-30T01:53:08.812Z,15.10
2023-04-30T01:56:43.490Z,14.70
2023-04-30T02:00:12.907Z,14.50
2023-04-30T02:03:42.581Z,16.50
2023-04-30T02:07:09.495Z,18.20
2023-04-30T02:10:36.196Z,16.30
2023-04-30T02:14:03.016Z,21.30
2023-04-30T02:17:29.950Z,20.80
2023-04-30T02:20:57.412Z,14.00
2023-04-30T02:24:24.529Z,18.00
2023-04-30T02:27:51.655Z,15.10
2023-04-30T02:31:18.540Z,12.50
2023-04-30T02:34:45.837Z,15.50
2023-04-30T02:38:12.725Z,17.50
2023-04-30T02:41:39.559Z,16.30
2023-04-30T02:45:06.923Z,17.80
2023-04-30T02:48:33.661Z,17.60
2023-04-30T02:52:01.130Z,17.60
2023-04-30T02:55:29.005Z,16.20
2023-04-30T02:58:55.727Z,20.10
2023-04-30T03:02:23.966Z,16.60
2023-04-30T03:05:51.248Z,17.60
2023-04-30T03:09:18.496Z,18.40
2023-04-30T03:12:45.099Z,16.00
2023-04-30T03:16:11.781Z,18.80
2023-04-30T03:19:38.454Z,15.70
2023-04-30T03:23:05.183Z,17.40
2023-04-30T03:26:32.866Z,17.50
2023-04-30T03:30:00.027Z,13.30
2023-04-30T03:33:26.713Z,13.20
2023-04-30T03:36:53.763Z,13.70
2023-04-30T03:40:20.398Z,13.80
2023-04-30T03:43:47.169Z,13.10
2023-04-30T03:47:13.959Z,11.60
2023-04-30T03:50:40.647Z,13.70
2023-04-30T03:54:07.865Z,14.10
2023-04-30T03:57:35.547Z,17.00
2023-04-30T04:01:02.317Z,14.60
2023-04-30T04:04:28.985Z,15.60
2023-04-30T04:07:57.112Z,17.10
2023-04-30T04:11:25.100Z,22.70
2023-04-30T04:14:52.555Z,18.60
2023-04-30T04:18:19.740Z,16.40
2023-04-30T04:21:46.399Z,15.30
2023-04-30T04:25:15.418Z,16.00
2023-04-30T04:28:43.083Z,17.70
2023-04-30T04:32:10.640Z,17.00
2023-04-30T04:35:40.313Z,12.70
2023-04-30T04:39:07.249Z,18.30
2023-04-30T04:42:34.468Z,17.30
2023-04-30T04:46:01.270Z,15.40
2023-04-30T04:49:29.173Z,15.80
2023-04-30T04:52:56.203Z,11.90
2023-04-30T04:56:23.552Z,14.20
2023-04-30T04:59:50.348Z,13.60
2023-04-30T05:03:17.048Z,15.10
2023-04-30T05:06:44.661Z,17.10
2023-04-30T05:10:12.806Z,11.60
2023-04-30T05:13:39.533Z,15.80
2023-04-30T05:17:06.955Z,15.60
2023-04-30T05:20:33.735Z,15.20
2023-04-30T05:24:01.199Z,14.70
2023-04-30T05:27:28.134Z,17.00
2023-04-30T05:30:54.741Z,12.80
2023-04-30T05:34:21.728Z,12.50
2023-04-30T05:37:48.735Z,13.60
2023-04-30T05:41:15.723Z,14.80
2023-04-30T05:44:42.278Z,13.10
2023-04-30T05:48:09.553Z,13.30
2023-04-30T05:51:36.634Z,13.90
2023-04-30T05:55:03.297Z,11.60
2023-04-30T05:58:29.920Z,11.50
2023-04-30T06:01:56.920Z,13.60
2023-04-30T06:05:24.220Z,11.10
2023-04-30T06:08:51.423Z,15.10
2023-04-30T06:12:18.155Z,11.90
2023-04-30T06:15:44.633Z,10.80
2023-04-30T06:19:11.142Z,12.90
2023-04-30T06:22:37.765Z,15.40
2023-04-30T06:26:04.413Z,14.40
2023-04-30T06:29:30.994Z,15.10
2023-04-30T06:32:58.007Z,8.80
2023-04-30T06:36:25.151Z,13.30
2023-04-30T06:39:53.384Z,20.80
2023-04-30T06:43:21.414Z,8.60
2023-04-30T06:46:48.417Z,11.40
2023-04-30T06:50:15.906Z,11.60
2023-04-30T06:53:43.286Z,14.20
2023-04-30T06:57:10.826Z,14.80
2023-04-30T07:00:38.582Z,14.00
2023-04-30T07:04:05.677Z,10.60
2023-04-30T07:07:33.983Z,9.10
2023-04-30T07:11:00.943Z,11.20
2023-04-30T07:14:28.075Z,9.90
2023-04-30T07:17:55.598Z,12.60
2023-04-30T07:21:22.960Z,10.50
2023-04-30T07:24:50.125Z,8.90
2023-04-30T07:28:17.680Z,6.80
2023-04-30T07:31:45.364Z,7.60
2023-04-30T07:35:13.122Z,11.90
2023-04-30T07:38:40.037Z,8.80
2023-04-30T07:42:06.943Z,5.60
2023-04-30T07:45:35.058Z,9.50
2023-04-30T07:49:01.858Z,7.60
2023-04-30T07:52:31.588Z,8.10
2023-04-30T07:55:58.367Z,9.50
2023-04-30T07:59:25.648Z,7.10
2023-04-30T08:02:52.205Z,7.50
2023-04-30T08:06:19.059Z,6.90
2023-04-30T08:09:46.028Z,7.50
2023-04-30T08:13:13.168Z,5.30
2023-04-30T08:16:39.963Z,6.00
2023-04-30T08:20:09.751Z,12.70
2023-04-30T08:23:36.743Z,8.30
2023-04-30T08:27:04.482Z,7.90
2023-04-30T08:30:31.239Z,5.90
2023-04-30T08:33:57.921Z,6.60
2023-04-30T08:37:24.645Z,6.00
2023-04-30T08:40:58.155Z,8.40
2023-04-30T08:47:50.893Z,7.30
2023-04-30T08:51:18.664Z,5.10
2023-04-30T08:54:46.919Z,7.10
2023-04-30T08:58:13.462Z,7.30
2023-04-30T09:01:40.642Z,9.00
2023-04-30T09:05:12.896Z,8.30
2023-04-30T09:08:47.890Z,7.90
2023-04-30T09:12:20.213Z,5.80
2023-04-30T09:15:53.383Z,4.00
2023-04-30T09:19:31.376Z,7.90
2023-04-30T09:23:10.140Z,6.20
2023-04-30T09:26:38.172Z,5.40
2023-04-30T09:30:06.613Z,5.60
2023-04-30T09:33:48.578Z,7.80
2023-04-30T09:37:16.204Z,7.90
2023-04-30T09:40:45.400Z,5.80
2023-04-30T09:44:30.000Z,4.70
2023-04-30T09:48:12.755Z,6.10
2023-04-30T09:51:57.669Z,9.40
2023-04-30T09:55:29.777Z,5.10
2023-04-30T09:58:58.831Z,7.20
2023-04-30T10:02:28.307Z,5.90
2023-04-30T10:05:56.600Z,6.20
2023-04-30T10:09:24.159Z,10.10
2023-04-30T10:12:55.608Z,4.40
2023-04-30T10:16:35.969Z,5.50
2023-04-30T10:20:09.607Z,7.10
2023-04-30T10:23:36.337Z,6.50
2023-04-30T10:27:03.935Z,6.30
2023-04-30T10:30:32.273Z,7.10
2023-04-30T10:34:08.258Z,5.00
2023-04-30T10:37:42.571Z,5.70
2023-04-30T10:41:10.928Z,9.80
2023-04-30T10:44:40.066Z,6.90
2023-04-30T10:48:08.222Z,8.60
2023-04-30T10:55:20.178Z,6.70
2023-04-30T10:58:47.685Z,4.60
2023-04-30T11:02:17.100Z,5.90
2023-04-30T11:05:44.321Z,8.40
2023-04-30T11:09:11.523Z,8.00
2023-04-30T11:12:42.300Z,4.40
2023-04-30T11:16:09.377Z,8.50
2023-04-30T11:19:36.659Z,7.00
2023-04-30T11:23:25.260Z,5.10
2023-04-30T11:27:09.193Z,4.30
2023-04-30T11:30:37.530Z,8.80
2023-04-30T11:34:04.739Z,4.30
2023-04-30T11:37:36.451Z,5.60
2023-04-30T11:41:06.722Z,7.80
2023-04-30T11:44:36.316Z,5.80
2023-04-30T11:48:03.135Z,8.40
2023-04-30T11:51:30.946Z,4.50
2023-04-30T11:55:00.609Z,5.10
2023-04-30T11:58:29.179Z,6.60
2023-04-30T12:01:57.535Z,4.00
2023-04-30T12:05:26.950Z,6.40
2023-04-30T12:08:55.842Z,4.40
2023-04-30T12:12:31.674Z,6.00
2023-04-30T12:16:04.594Z,4.50
2023-04-30T12:19:34.763Z,5.60
2023-04-30T12:23:06.208Z,7.70
2023-04-30T12:26:40.314Z,6.20
2023-04-30T12:30:10.123Z,7.30
2023-04-30T12:33:37.306Z,13.00
2023-04-30T12:37:05.371Z,32.90
2023-04-30T12:40:32.156Z,23.30
2023-04-30T12:44:21.734Z,10.50
2023-04-30T12:47:49.812Z,6.60
2023-04-30T12:51:23.203Z,6.20
2023-04-30T12:54:49.524Z,5.00
2023-04-30T12:58:17.769Z,5.80
2023-04-30T13:01:48.609Z,5.90
2023-04-30T13:05:16.021Z,6.40
2023-04-30T13:08:57.132Z,7.10
2023-04-30T13:12:25.154Z,11.30
2023-04-30T13:15:51.994Z,8.70
2023-04-30T13:19:18.746Z,20.00
2023-04-30T13:22:45.731Z,5.60
2023-04-30T13:26:12.840Z,7.30
2023-04-30T13:29:39.936Z,6.60
2023-04-30T13:33:07.205Z,3.60
2023-04-30T13:36:34.988Z,3.00
2023-04-30T13:40:03.878Z,5.50
2023-04-30T13:43:34.006Z,6.40
2023-04-30T13:47:02.285Z,6.00
2023-04-30T13:50:29.386Z,6.10
2023-04-30T13:53:57.044Z,7.60
2023-04-30T13:57:24.469Z,8.50
2023-04-30T14:00:51.797Z,6.30
2023-04-30T14:04:18.937Z,8.30
2023-04-30T14:07:45.991Z,5.20
2023-04-30T14:11:12.541Z,4.10
2023-04-30T14:14:39.652Z,7.00
2023-04-30T14:18:06.542Z,6.70
2023-04-30T14:21:33.740Z,6.10
2023-04-30T14:25:00.531Z,5.80
2023-04-30T14:28:27.358Z,6.60
2023-04-30T14:31:54.467Z,5.90
2023-04-30T14:35:21.409Z,5.10
2023-04-30T14:38:48.398Z,6.40
2023-04-30T14:42:15.124Z,6.30
2023-04-30T14:45:44.461Z,4.30
2023-04-30T14:49:11.753Z,4.90
2023-04-30T14:52:38.485Z,5.30
2023-04-30T14:56:07.526Z,5.30
2023-04-30T14:59:36.312Z,4.30
2023-04-30T15:03:05.880Z,5.80
2023-04-30T15:06:40.985Z,8.20
2023-04-30T15:10:13.979Z,4.00
2023-04-30T15:13:41.381Z,5.30
2023-04-30T15:17:09.034Z,6.30
2023-04-30T15:20:44.865Z,5.20
2023-04-30T15:24:14.104Z,7.60
2023-04-30T15:27:42.428Z,8.70
2023-04-30T15:31:10.096Z,4.20
2023-04-30T15:34:37.579Z,4.10
2023-04-30T15:38:04.313Z,5.20
2023-04-30T15:41:31.246Z,7.20
2023-04-30T15:44:57.921Z,7.60
2023-04-30T15:48:25.925Z,5.00
2023-04-30T15:51:54.315Z,7.30
2023-04-30T15:55:21.339Z,7.20
2023-04-30T15:58:48.321Z,6.50
2023-04-30T16:02:15.888Z,5.20
2023-04-30T16:05:43.013Z,9.50
2023-04-30T16:09:11.403Z,4.90
2023-04-30T16:12:38.316Z,5.80
2023-04-30T16:16:08.563Z,6.00
2023-04-30T16:19:35.580Z,4.60
2023-04-30T16:23:05.042Z,8.50
2023-04-30T16:26:32.201Z,7.60
2023-04-30T16:29:59.000Z,3.60
2023-04-30T16:33:28.050Z,4.60
2023-04-30T16:36:56.993Z,3.50
2023-04-30T16:40:25.077Z,7.20
2023-04-30T16:43:52.306Z,4.40
2023-04-30T16:47:21.813Z,5.70
2023-04-30T16:50:48.949Z,7.10
2023-04-30T16:54:16.739Z,7.30
2023-04-30T16:57:45.381Z,6.50
2023-04-30T17:01:12.189Z,3.80
2023-04-30T17:04:39.500Z,7.00
2023-04-30T17:08:08.315Z,7.50
2023-04-30T17:11:37.746Z,9.30
2023-04-30T17:15:05.674Z,6.30
2023-04-30T17:18:34.164Z,4.80
2023-04-30T17:22:04.543Z,5.00
2023-04-30T17:25:32.205Z,10.60
2023-04-30T17:28:59.718Z,6.70
2023-04-30T17:32:30.020Z,4.30
2023-04-30T17:35:58.869Z,8.90
2023-04-30T17:39:25.697Z,8.90
2023-04-30T17:42:53.073Z,8.00
2023-04-30T17:46:22.751Z,6.50
2023-04-30T17:49:49.418Z,6.70
2023-04-30T17:53:17.922Z,7.30
2023-04-30T17:56:45.307Z,7.80
2023-04-30T18:00:17.239Z,8.70
2023-04-30T18:03:51.213Z,5.70
2023-04-30T18:07:22.837Z,5.60
2023-04-30T18:10:54.833Z,7.10
2023-04-30T18:14:22.705Z,9.60
2023-04-30T18:17:49.999Z,9.70
2023-04-30T18:21:21.998Z,9.70
2023-04-30T18:24:49.156Z,9.80
2023-04-30T18:28:22.800Z,9.40
2023-04-30T18:35:18.960Z,10.60
2023-04-30T18:38:45.822Z,7.00
2023-04-30T18:42:15.049Z,8.80
2023-04-30T18:45:42.135Z,12.10
2023-04-30T18:49:11.656Z,8.30
2023-04-30T18:52:38.327Z,10.80
2023-04-30T18:56:05.910Z,9.50
2023-04-30T18:59:34.160Z,14.30
2023-04-30T19:03:01.766Z,18.10
2023-04-30T19:06:31.161Z,18.80
2023-04-30T19:09:59.661Z,21.50
2023-04-30T19:13:26.364Z,29.30
2023-04-30T19:16:53.509Z,35.80
2023-04-30T19:20:22.976Z,32.40
2023-04-30T19:23:49.984Z,28.00
2023-04-30T19:27:16.490Z,27.80
2023-04-30T19:30:44.040Z,23.20
2023-04-30T19:34:11.282Z,27.50
2023-04-30T19:37:38.240Z,22.60
2023-04-30T19:41:05.028Z,21.70
2023-04-30T19:44:32.668Z,14.10
2023-04-30T19:48:01.586Z,16.80
2023-04-30T19:51:29.000Z,13.40
2023-04-30T19:54:56.417Z,12.00
2023-04-30T19:58:24.061Z,13.60
2023-04-30T20:01:53.870Z,10.20
2023-04-30T20:05:22.039Z,8.90
2023-04-30T20:08:51.258Z,13.00
2023-04-30T20:12:18.119Z,8.20
2023-04-30T20:15:45.417Z,8.90
2023-04-30T20:19:13.291Z,8.70
2023-04-30T20:22:43.812Z,9.40
2023-04-30T20:26:14.797Z,7.70
2023-04-30T20:29:44.358Z,10.50
2023-04-30T20:33:15.179Z,10.10
2023-04-30T20:36:47.398Z,9.00
2023-04-30T20:40:17.167Z,5.50
2023-04-30T20:43:45.745Z,9.80
2023-04-30T20:47:16.302Z,9.60
2023-04-30T20:50:49.739Z,9.50
2023-04-30T20:54:21.271Z,8.40
2023-04-30T20:57:50.364Z,9.40
2023-04-30T21:01:19.996Z,9.90
2023-04-30T21:04:53.023Z,7.80
2023-04-30T21:08:21.764Z,7.20
2023-04-30T21:11:48.771Z,9.10
2023-04-30T21:15:19.501Z,5.00
2023-04-30T21:18:52.272Z,8.30
2023-04-30T21:22:22.408Z,10.00
2023-04-30T21:25:50.163Z,10.60
2023-04-30T21:29:17.221Z,7.80
2023-04-30T21:32:49.158Z,10.30
2023-04-30T21:36:18.045Z,7.30
2023-04-30T21:39:46.994Z,9.90
2023-04-30T21:43:18.270Z,9.50
2023-04-30T21:46:45.826Z,9.00
2023-04-30T21:50:15.311Z,11.50
2023-04-30T21:53:43.285Z,8.10
2023-04-30T21:57:11.396Z,13.90
2023-04-30T22:00:39.070Z,11.70
2023-04-30T22:04:09.103Z,16.30
2023-04-30T22:07:36.832Z,21.50
2023-04-30T22:11:05.224Z,18.60
2023-04-30T22:14:31.969Z,24.20
2023-04-30T22:17:59.236Z,31.30
2023-04-30T22:21:26.307Z,25.70
2023-04-30T22:24:56.423Z,24.20
2023-04-30T22:28:26.664Z,21.10
2023-04-30T22:31:58.252Z,19.60
2023-04-30T22:35:33.471Z,16.70
2023-04-30T22:39:01.962Z,22.80
2023-04-30T22:42:30.365Z,18.80
2023-04-30T22:45:59.418Z,23.80
2023-04-30T22:49:31.554Z,18.30
2023-04-30T22:53:01.464Z,18.70
2023-04-30T22:56:30.513Z,19.40
2023-04-30T23:00:03.603Z,17.00
2023-04-30T23:03:39.054Z,20.10
2023-04-30T23:07:07.145Z,18.30
2023-04-30T23:10:34.723Z,20.80
2023-04-30T23:14:02.288Z,27.20
2023-04-30T23:17:29.036Z,18.60
2023-04-30T23:20:59.115Z,21.00
2023-04-30T23:24:26.524Z,41.20
2023-04-30T23:27:55.278Z,78.10
2023-04-30T23:31:22.524Z,68.70
2023-04-30T23:34:52.557Z,193.40
2023-04-30T23:38:19.472Z,52.20
2023-04-30T23:41:55.700Z,25.40
2023-04-30T23:45:24.408Z,23.90
2023-04-30T23:48:51.054Z,21.20
2023-04-30T23:52:19.262Z,23.70
2023-04-30T23:55:45.897Z,21.10
2023-04-30T23:59:12.627Z,78.80
